Staten Island, NY (10306)

10:34 AM EDT on September 20, 2014 (GMT -0400)
Richmondtown | Change Station
CLOSE
Current Station
Personal Weather Station
Location: New York, NY
Elevation: 74 ft
Nearby Weather Stations

Elev 74 ft 40.57 °N, 74.13 °W | Updated 3 seconds ago

Mostly Cloudy
Mostly Cloudy
71.2 °F
Feels Like 75 °F
N
0.0
Wind Variable Wind from ESE
Gusts 8.0 mph

Today
High -- | Low -- °F
--% Chance of Precip.
Yesterday
High -- | Low -- °F
Precip. -- in
6:42 AM 6:57 PM
Waning Crescent, 12% visible
Pressure 30.29 in
Visibility 10.0 miles
Clouds Scattered Clouds 2800 ft
Scattered Clouds 3400 ft
Heat Index 75 °F
Dew Point 60 °F
Humidity 67%
Rainfall 0.00 in
Snow Depth Not available.
UV 4 out of 12
Pollen 2.60 out of 12
Ozone Good
PM2.5 Moderate
Flu Activity Not available.
METAR KLDJ 201435Z AUTO 17007KT 10SM SCT028 SCT034 24/16 A3029 RMK AO2 T02370155

More Conditions Fewer Conditions

Pressure 30.29 in
Visibility 10.0 miles
Clouds Scattered Clouds 2800 ft
Scattered Clouds 3400 ft
Heat Index 75 °F
Dew Point 60 °F
Humidity 67%
Rainfall 0.00 in
Snow Depth Not available.
UV 4 out of 12
Pollen 2.60 out of 12
Ozone Good
PM2.5 Moderate
Flu Activity Not available.
METAR KLDJ 201435Z AUTO 17007KT 10SM SCT028 SCT034 24/16 A3029 RMK AO2 T02370155

More Conditions Fewer Conditions

10-Day Weather Forecast

Almanac

Astronomy

Sep. 20, 2014 Rise Set
Actual Time 6:42 AM EDT 6:57 PM EDT
Civil Twilight 6:14 AM EDT 7:24 PM EDT
Nautical Twilight 5:42 AM EDT 7:56 PM EDT
Astronomical Twilight 5:09 AM EDT 8:28 PM EDT
Moon 3:18 AM EDT 4:59 PM EDT
Length of Visible Light 13h 09m
Length of Day
12h 15m
Tomorrow will be 2m 40s shorter.
Waning Crescent, 12% of the Moon is Illuminated
Today
Waning Crescent
Sep 24
New
Oct 1
First Quarter
Oct 8
Full
Oct 15
Last Quarter

Today's Extremes

State Highs State Lows

Community

WunderPhotos

Upload Photos

1,754,872 photos uploaded!

WunderBlogs® & News

Nearby

Air Quality

  Air Quality AQ Index Pollutant
Yesterday Good
OZONE
Yesterday Good
PM2.5
Current Moderate
PM2.5
Current Good
OZONE
Saturday Good
PM2.5
Saturday Good
OZONE
Sunday Good
PM2.5
Sunday Good
OZONE
Monday Good
PM2.5
Monday Good
OZONE

Snow Depth

Station Depth Elevation
No new snow has been reported.

Earthquake Activity

City Distance Mag. Time & Date
No recent earthquake activity has been reported nearby.
Minimum magnitude displayed is 2.5.

Coastal Water Temperatures

Place Temperature
Sandy Hook, NJ 68.0 °F
The Battery, NY 70.0 °F
Bergen Point West Reach, NJ 70.0 °F
Kings Point, NY 68.0 °F

Nearby Weather Stations